Time;durP1;ratioP1;P1;durP2;ratioP2;P2;SDS_P1;SDS_P2;PMS_P1;PMS_P2;Temp;Humidity;BMP_temperature;BMP_pressure;BME280_temperature;BME280_humidity;BME280_pressure;Samples;Min_cycle;Max_cycle;Signal;HPM_P1;HPM_P2
2023/08/01 00:02:05;;;;;;;2.78;2.67;;;19.60;99.90;;;19.79;89.14;99801.41;5043179;28;20390;-69
2023/08/01 00:04:34;;;;;;;3.95;3.75;;;19.60;99.90;;;19.81;89.09;99809.38;5041220;28;20047;-68
2023/08/01 00:07:02;;;;;;;3.10;3.00;;;19.60;99.90;;;19.56;89.82;99798.34;5043420;28;20081;-69
2023/08/01 00:09:30;;;;;;;3.33;3.13;;;19.40;99.90;;;19.63;89.99;99797.91;5040072;28;20482;-70
2023/08/01 00:12:00;;;;;;;3.10;3.00;;;19.40;99.90;;;19.11;89.69;99709.78;5031786;28;20053;-69
2023/08/01 00:14:28;;;;;;;2.80;2.70;;;19.50;99.90;;;19.59;90.11;99788.28;5032058;28;20136;-70
2023/08/01 00:16:57;;;;;;;3.00;2.90;;;19.40;99.90;;;19.58;90.46;99774.97;5032633;28;20101;-69
2023/08/01 00:19:25;;;;;;;2.60;2.50;;;19.40;99.90;;;19.67;90.49;99777.09;5033368;28;20045;-68
2023/08/01 00:21:54;;;;;;;2.70;2.60;;;19.40;99.90;;;19.71;90.35;99776.84;5042309;28;20041;-70
2023/08/01 00:24:22;;;;;;;3.17;3.08;;;19.40;99.90;;;19.74;90.52;99775.81;5041976;28;20459;-69
2023/08/01 00:26:51;;;;;;;3.17;3.08;;;19.50;99.90;;;19.67;90.56;99763.69;5041268;28;20071;-69
2023/08/01 00:29:20;;;;;;;3.03;2.92;;;19.50;99.90;;;19.77;90.52;99756.81;5043051;28;20041;-70
2023/08/01 00:31:49;;;;;;;3.00;2.90;;;19.60;99.90;;;19.67;90.91;99758.31;5044282;28;20110;-70
2023/08/01 00:34:17;;;;;;;2.90;2.80;;;19.50;99.90;;;19.66;91.83;99745.88;5055279;28;20057;-69
2023/08/01 00:36:46;;;;;;;2.85;2.75;;;19.40;99.90;;;19.67;91.31;99747.59;5040798;28;20055;-69
2023/08/01 00:39:14;;;;;;;2.70;2.60;;;19.40;99.90;;;19.68;91.67;99752.03;5054283;28;20053;-69
2023/08/01 00:41:43;;;;;;;2.65;2.55;;;19.40;99.90;;;19.77;91.52;99754.16;5045054;28;20080;-68
2023/08/01 00:44:11;;;;;;;3.17;3.08;;;19.50;99.90;;;19.79;91.77;99757.59;5062126;28;20052;-70
2023/08/01 00:46:41;;;;;;;2.83;2.72;;;19.50;99.90;;;19.76;92.77;99752.44;5045647;28;20045;-72
2023/08/01 00:49:10;;;;;;;2.95;2.85;;;19.50;99.90;;;19.68;93.32;99749.34;5060669;28;20056;-69
2023/08/01 00:51:38;;;;;;;2.72;2.63;;;19.40;99.90;;;19.77;92.86;99744.28;5046477;28;20124;-70
2023/08/01 00:54:07;;;;;;;3.35;3.25;;;19.50;99.90;;;19.78;92.97;99739.78;5044456;28;20078;-69
2023/08/01 00:56:35;;;;;;;3.25;3.15;;;19.50;99.90;;;19.78;92.51;99737.94;5058838;28;20045;-69
2023/08/01 00:59:04;;;;;;;2.78;2.67;;;19.60;99.90;;;19.84;92.62;99739.38;5058866;28;20156;-69
2023/08/01 01:01:32;;;;;;;2.92;2.83;;;19.60;99.90;;;19.85;92.20;99737.56;5043795;28;20080;-70
2023/08/01 01:04:01;;;;;;;2.97;2.88;;;19.60;99.90;;;19.80;92.54;99737.88;5046221;28;20348;-69
2023/08/01 01:06:34;;;;;;;2.70;2.60;;;19.60;99.90;;;19.78;92.82;99737.09;5059744;28;20053;-70
2023/08/01 01:09:04;;;;;;;3.70;3.45;;;19.60;99.90;;;19.89;92.52;99748.03;5044999;28;20044;-69
2023/08/01 01:11:33;;;;;;;2.95;2.85;;;19.60;99.90;;;19.84;92.38;99739.38;5045956;28;20057;-69
2023/08/01 01:14:01;;;;;;;3.42;3.33;;;19.60;99.90;;;19.75;92.23;99745.31;5043834;28;20037;-69
2023/08/01 01:16:30;;;;;;;3.10;3.00;;;19.50;99.90;;;19.80;91.83;99744.09;5058602;28;20055;-70
2023/08/01 01:18:58;;;;;;;3.38;3.17;;;19.50;99.90;;;19.79;91.87;99742.38;5042994;28;20395;-70
2023/08/01 01:21:28;;;;;;;3.10;3.00;;;19.60;99.90;;;19.74;91.93;99733.72;5042952;28;20061;-68
2023/08/01 01:23:57;;;;;;;2.93;2.83;;;19.50;99.90;;;19.74;91.77;99735.56;5045828;28;20106;-71
2023/08/01 01:26:26;;;;;;;2.80;2.70;;;19.50;99.90;;;19.62;92.22;99736.28;5056319;28;20056;-69
2023/08/01 01:28:56;;;;;;;2.95;2.85;;;19.50;99.90;;;19.62;92.31;99736.28;5044532;28;20041;-69
2023/08/01 01:31:25;;;;;;;3.30;3.20;;;19.40;99.90;;;19.62;92.00;99730.91;5059645;28;20074;-69
2023/08/01 01:33:54;;;;;;;3.08;2.97;;;19.40;99.90;;;19.69;91.82;99735.81;5045367;28;20076;-68
2023/08/01 01:36:22;;;;;;;3.22;3.13;;;19.40;99.90;;;19.67;92.27;99716.25;5043273;28;20384;-69
2023/08/01 01:38:51;;;;;;;3.50;3.33;;;19.40;99.90;;;19.60;93.04;99722.09;5046297;28;20080;-69
2023/08/01 01:41:20;;;;;;;3.43;3.27;;;19.40;99.90;;;19.66;93.26;99722.59;5033357;28;20407;-69
2023/08/01 01:43:48;;;;;;;3.63;3.42;;;19.40;99.90;;;19.64;93.62;99729.88;5041356;28;20057;-68
2023/08/01 01:46:17;;;;;;;5.80;4.43;;;19.40;99.90;;;19.61;93.36;99724.69;5049715;28;20050;-69
2023/08/01 01:48:45;;;;;;;3.05;2.95;;;19.40;99.90;;;19.63;93.81;99735.31;5039613;28;20046;-69
2023/08/01 01:51:15;;;;;;;4.53;4.13;;;19.30;99.90;;;19.66;93.58;99730.66;5060408;28;20519;-70
2023/08/01 01:53:43;;;;;;;3.63;3.53;;;19.40;99.90;;;19.59;93.64;99726.59;5044462;28;20091;-69
2023/08/01 01:56:13;;;;;;;3.42;3.33;;;19.40;99.90;;;19.48;94.27;99730.84;5043844;28;20041;-69
2023/08/01 01:58:41;;;;;;;3.47;3.28;;;19.30;99.90;;;19.58;94.12;99727.56;5060792;28;20445;-70
2023/08/01 02:01:09;;;;;;;4.72;3.08;;;19.30;99.90;;;19.58;93.92;99724.88;5058091;28;20046;-69
2023/08/01 02:03:38;;;;;;;2.90;2.80;;;19.30;99.90;;;19.59;94.26;99729.25;5061553;28;20096;-69
2023/08/01 02:06:07;;;;;;;3.72;3.53;;;19.30;99.90;;;19.62;94.33;99720.19;5042643;28;20041;-69
2023/08/01 02:08:36;;;;;;;12.43;4.47;;;19.30;99.90;;;19.56;94.10;99710.69;5060852;28;20487;-69
2023/08/01 02:11:04;;;;;;;4.05;3.55;;;19.40;99.90;;;19.67;94.06;99715.41;5055129;28;20061;-69
2023/08/01 02:13:34;;;;;;;3.00;2.90;;;19.40;99.90;;;19.62;94.18;99709.44;5075506;28;20041;-70
2023/08/01 02:16:03;;;;;;;3.05;2.95;;;19.40;99.90;;;19.61;94.07;99705.91;5043633;28;20044;-69
2023/08/01 02:18:31;;;;;;;2.97;2.88;;;19.40;99.90;;;19.69;93.77;99714.34;5044498;28;20124;-68
2023/08/01 02:20:59;;;;;;;3.90;3.70;;;19.40;99.90;;;19.74;93.21;99711.41;5042979;28;20102;-69
2023/08/01 02:23:28;;;;;;;3.25;3.05;;;19.50;99.90;;;19.71;93.29;99707.06;5056828;28;20103;-72
2023/08/01 02:25:57;;;;;;;3.00;2.90;;;19.50;99.90;;;19.73;93.23;99717.72;5077447;28;20053;-68
2023/08/01 02:28:25;;;;;;;3.15;3.05;;;19.50;99.90;;;19.74;93.75;99714.94;5033411;28;20442;-69
2023/08/01 02:30:55;;;;;;;3.28;3.17;;;19.50;99.90;;;19.65;94.45;99706.56;5048997;28;20052;-69
2023/08/01 02:33:23;;;;;;;3.50;3.40;;;19.40;99.90;;;19.57;95.12;99711.53;5033485;28;20042;-69
2023/08/01 02:35:52;;;;;;;2.80;2.70;;;19.40;99.90;;;19.51;95.29;99710.06;5037231;28;20128;-69
2023/08/01 02:38:20;;;;;;;5.82;5.43;;;19.30;99.90;;;19.59;94.72;99717.66;5043268;28;20103;-69
2023/08/01 02:40:49;;;;;;;3.72;3.53;;;19.30;99.90;;;19.57;94.32;99715.06;5058741;28;20072;-69
2023/08/01 02:43:17;;;;;;;3.30;3.20;;;19.30;99.90;;;19.40;94.97;99712.53;5043976;28;20045;-69
2023/08/01 02:45:46;;;;;;;3.10;3.00;;;19.20;99.90;;;19.49;95.02;99716.50;5042585;28;20050;-69
2023/08/01 02:48:16;;;;;;;3.42;3.33;;;19.30;99.90;;;19.33;95.05;99708.50;5044374;28;20056;-68
2023/08/01 02:50:45;;;;;;;3.70;3.40;;;19.10;99.90;;;19.36;94.38;99718.16;5041797;28;20068;-69
2023/08/01 02:53:14;;;;;;;3.40;3.22;;;19.10;99.90;;;19.23;94.99;99717.13;5065246;28;20034;-69
2023/08/01 02:55:45;;;;;;;3.35;3.25;;;19.00;99.90;;;19.14;94.22;99713.19;5033366;28;20042;-69
2023/08/01 02:58:14;;;;;;;2.88;2.78;;;18.90;99.90;;;19.18;94.65;99714.69;5033287;28;20049;-69
2023/08/01 03:00:42;;;;;;;3.00;2.90;;;18.90;99.90;;;19.25;94.16;99716.09;5066453;28;20045;-69
2023/08/01 03:03:10;;;;;;;2.97;2.88;;;19.00;99.90;;;19.22;93.89;99713.56;5042853;28;20044;-69
2023/08/01 03:05:40;;;;;;;3.38;3.28;;;19.00;99.90;;;19.29;93.70;99719.44;5043512;28;20579;-69
2023/08/01 03:08:09;;;;;;;3.10;3.00;;;19.10;99.90;;;19.28;93.31;99721.25;5041909;28;20060;-69
2023/08/01 03:10:37;;;;;;;3.15;3.05;;;19.10;99.90;;;19.32;93.62;99713.91;5044514;28;20426;-68
2023/08/01 03:13:05;;;;;;;2.85;2.75;;;19.10;99.90;;;19.35;93.38;99716.44;5056610;28;20060;-68
2023/08/01 03:15:34;;;;;;;3.05;2.95;;;19.20;99.90;;;19.33;93.69;99715.66;5041210;28;20045;-70
2023/08/01 03:18:03;;;;;;;3.35;3.25;;;19.10;99.90;;;19.33;94.13;99724.59;5059726;28;20043;-69
2023/08/01 03:20:32;;;;;;;3.17;3.05;;;19.10;99.90;;;19.35;94.96;99730.72;5058026;28;20053;-69
2023/08/01 03:23:02;;;;;;;4.18;3.97;;;19.10;99.90;;;19.38;95.40;99729.66;5043278;28;20045;-69
2023/08/01 03:25:30;;;;;;;4.63;4.20;;;19.10;99.90;;;19.24;96.38;99719.72;5042854;28;20045;-70
2023/08/01 03:27:59;;;;;;;3.42;3.33;;;19.10;99.90;;;19.12;96.39;99727.63;5057544;28;20279;-69
2023/08/01 03:30:28;;;;;;;2.80;2.70;;;18.90;99.90;;;19.16;96.39;99734.53;5055668;28;20056;-69
2023/08/01 03:32:57;;;;;;;3.58;3.42;;;19.00;99.90;;;19.18;96.60;99732.63;5044214;28;20040;-68
2023/08/01 03:35:25;;;;;;;3.55;3.45;;;19.00;99.90;;;19.22;96.58;99736.84;5055850;28;20048;-69
2023/08/01 03:37:54;;;;;;;3.72;3.53;;;19.00;99.90;;;19.21;96.49;99737.78;5032335;28;20049;-69
2023/08/01 03:40:24;;;;;;;3.35;3.25;;;19.00;99.90;;;19.20;96.71;99736.09;5032553;28;20065;-70
2023/08/01 03:42:52;;;;;;;;;;;19.00;99.90;;;19.15;96.34;99725.63;5032891;28;20457;-68
2023/08/01 03:45:21;;;;;;;2.80;2.70;;;19.00;99.90;;;19.17;96.10;99736.25;5034176;28;19925;-69
2023/08/01 03:47:50;;;;;;;3.53;3.38;;;19.00;99.90;;;19.18;95.66;99743.34;5042397;28;20049;-68
2023/08/01 03:50:18;;;;;;;3.35;3.25;;;19.00;99.90;;;19.09;95.43;99739.38;5043041;28;20135;-68
2023/08/01 03:52:51;;;;;;;3.10;3.00;;;18.90;99.90;;;19.13;95.33;99740.03;5056489;28;20049;-69
2023/08/01 03:55:19;;;;;;;3.10;3.00;;;18.90;99.90;;;19.15;95.45;99746.19;5044338;28;20049;-69
2023/08/01 03:57:49;;;;;;;5.72;4.32;;;18.90;99.90;;;18.97;95.60;99749.94;5050921;28;20041;-69
2023/08/01 04:00:18;;;;;;;3.63;3.43;;;18.80;99.90;;;19.10;95.29;99745.59;5053355;28;20049;-69
2023/08/01 04:02:46;;;;;;;3.22;3.03;;;18.90;99.90;;;19.04;95.33;99749.50;5041599;28;20348;-70
2023/08/01 04:05:19;;;;;;;2.95;2.85;;;18.90;99.90;;;19.01;95.94;99748.81;5042437;28;20405;-70
2023/08/01 04:07:47;;;;;;;3.97;3.65;;;18.80;99.90;;;19.09;95.88;99741.16;5058957;28;20403;-69
2023/08/01 04:10:16;;;;;;;3.90;3.70;;;18.80;99.90;;;19.10;95.22;99729.50;5041763;28;20057;-69
2023/08/01 04:12:45;;;;;;;3.35;3.25;;;18.90;99.90;;;18.97;95.63;99739.22;5044998;28;20447;-70
2023/08/01 04:15:15;;;;;;;7.65;4.80;;;18.80;99.90;;;18.86;95.25;99710.31;5044752;28;20132;-70
2023/08/01 04:17:43;;;;;;;2.92;2.83;;;18.80;99.90;;;19.04;94.99;99745.94;5036758;28;20140;-70
2023/08/01 04:20:12;;;;;;;3.83;3.63;;;18.80;99.90;;;19.02;94.81;99739.81;5036008;28;20037;-69
2023/08/01 04:22:41;;;;;;;4.60;4.30;;;18.80;99.90;;;19.11;94.89;99737.47;5051504;28;20053;-70
2023/08/01 04:25:10;;;;;;;3.97;3.78;;;18.80;99.90;;;19.13;94.53;99735.56;5044381;28;20401;-69
2023/08/01 04:27:38;;;;;;;3.15;3.05;;;18.90;99.90;;;19.10;94.42;99734.88;5045928;28;20045;-70
2023/08/01 04:30:08;;;;;;;3.83;3.65;;;18.90;99.90;;;19.01;93.99;99736.25;5045376;28;20567;-69
2023/08/01 04:32:38;;;;;;;3.83;3.63;;;18.80;99.90;;;19.04;93.53;99730.72;5058801;28;20144;-69
2023/08/01 04:35:07;;;;;;;3.47;3.28;;;18.90;99.90;;;19.00;93.33;99733.66;5079448;28;20399;-70
2023/08/01 04:37:35;;;;;;;3.30;3.20;;;18.80;99.90;;;18.90;93.95;99736.88;5035575;28;20034;-70
2023/08/01 04:40:04;;;;;;;3.63;3.45;;;18.70;99.90;;;18.95;93.64;99731.22;5046545;28;20050;-69
2023/08/01 04:42:33;;;;;;;3.17;3.08;;;18.80;99.90;;;18.99;93.37;99735.47;5062187;28;20045;-70
2023/08/01 04:45:01;;;;;;;3.60;3.40;;;18.80;99.90;;;18.93;92.84;99741.19;5044802;28;20056;-70
2023/08/01 04:47:29;;;;;;;3.53;3.42;;;18.80;99.90;;;18.91;92.80;99748.47;5045898;28;20072;-69
2023/08/01 04:49:59;;;;;;;3.83;3.50;;;18.70;99.90;;;18.97;92.79;99740.06;5045276;28;20099;-69
2023/08/01 04:52:27;;;;;;;3.40;3.20;;;18.80;99.90;;;19.00;92.52;99731.84;5044887;28;20668;-69
2023/08/01 04:54:56;;;;;;;3.72;3.53;;;18.80;99.90;;;18.95;92.73;99743.78;5058428;28;20110;-70
2023/08/01 04:57:24;;;;;;;2.90;2.80;;;18.70;99.90;;;18.91;92.98;99746.63;5047015;28;20055;-69
2023/08/01 04:59:52;;;;;;;4.38;4.07;;;18.70;99.90;;;18.98;93.07;99752.53;5043538;28;20041;-69
2023/08/01 05:02:21;;;;;;;3.63;3.53;;;18.80;99.90;;;19.07;92.84;99746.63;5047541;28;20057;-70
2023/08/01 05:04:49;;;;;;;3.03;2.92;;;18.90;99.90;;;19.17;92.27;99749.66;5035199;28;20056;-69
2023/08/01 05:07:19;;;;;;;2.88;2.78;;;19.00;99.90;;;19.07;92.74;99751.13;5035056;28;20038;-70
2023/08/01 05:09:47;;;;;;;3.10;3.00;;;18.90;99.90;;;18.95;92.84;99736.59;5034842;28;20045;-69
2023/08/01 05:12:15;;;;;;;3.50;3.40;;;18.90;99.90;;;18.88;93.39;99730.75;5036353;28;20060;-70
2023/08/01 05:14:44;;;;;;;4.75;3.60;;;18.80;99.90;;;19.17;92.41;99741.59;5045341;28;20123;-69
2023/08/01 05:17:12;;;;;;;11.00;4.63;;;18.90;99.90;;;19.00;91.53;99737.22;5045128;28;20509;-69
2023/08/01 05:19:40;;;;;;;2.80;2.70;;;18.80;99.90;;;19.15;91.25;99744.38;5044088;28;20076;-69
2023/08/01 05:22:09;;;;;;;3.20;3.10;;;18.90;99.90;;;19.04;91.03;99741.47;5045644;28;20470;-70
2023/08/01 05:24:39;;;;;;;3.22;3.13;;;18.80;99.90;;;19.05;90.88;99747.69;5043029;28;20073;-70
2023/08/01 05:27:07;;;;;;;3.10;3.00;;;18.80;99.90;;;19.11;90.54;99737.47;5046877;28;20486;-69
2023/08/01 05:29:36;;;;;;;4.18;3.97;;;18.90;99.90;;;19.16;89.95;99746.13;5050565;28;20056;-69
2023/08/01 05:32:05;;;;;;;4.07;3.83;;;19.00;99.90;;;19.09;90.42;99739.38;5034803;28;20042;-71
2023/08/01 05:34:33;;;;;;;3.08;2.97;;;18.90;99.90;;;19.17;90.24;99755.00;5034643;28;20159;-70
2023/08/01 05:37:02;;;;;;;3.30;3.20;;;19.00;99.90;;;19.20;90.54;99757.53;5039505;28;20080;-69
2023/08/01 05:39:30;;;;;;;3.22;3.13;;;19.00;99.90;;;19.32;89.96;99756.81;5044688;28;20067;-70
2023/08/01 05:42:00;;;;;;;3.22;3.13;;;19.10;99.90;;;19.40;90.21;99760.81;5045057;28;20042;-70
2023/08/01 05:44:28;;;;;;;3.30;3.20;;;19.20;99.90;;;19.17;90.52;99755.88;5043983;28;20450;-70
2023/08/01 05:46:57;;;;;;;3.25;3.15;;;19.00;99.90;;;19.29;90.07;99754.31;5045912;28;20516;-70
2023/08/01 05:49:25;;;;;;;3.00;2.90;;;19.10;99.90;;;19.41;89.55;99751.81;5043033;28;20041;-70
2023/08/01 05:51:53;;;;;;;3.53;3.42;;;19.20;99.90;;;19.37;90.13;99762.81;5034537;28;20069;-70
2023/08/01 05:54:22;;;;;;;3.30;3.20;;;19.10;99.90;;;19.49;89.35;99765.63;5034212;28;20167;-69
2023/08/01 05:56:50;;;;;;;3.42;3.22;;;19.20;99.90;;;19.43;89.04;99767.81;5034485;28;20048;-70
2023/08/01 05:59:20;;;;;;;10.07;3.60;;;19.20;99.90;;;19.44;88.80;99765.03;5034391;28;20056;-70
2023/08/01 06:01:48;;;;;;;4.47;4.27;;;19.20;99.90;;;19.43;88.94;99765.16;5044234;28;20057;-69
2023/08/01 06:04:17;;;;;;;3.40;3.30;;;19.20;99.90;;;19.56;88.52;99776.88;5044206;28;20294;-71
2023/08/01 06:06:45;;;;;;;4.10;3.90;;;19.30;99.90;;;19.53;88.34;99748.41;5044627;28;20510;-70
2023/08/01 06:09:13;;;;;;;3.67;3.45;;;19.40;99.90;;;19.40;88.18;99744.72;5043333;28;20439;-70
2023/08/01 06:11:42;;;;;;;3.78;3.58;;;19.40;99.90;;;19.61;87.99;99772.09;5076709;28;20057;-70
2023/08/01 06:14:10;;;;;;;3.75;3.55;;;19.40;99.90;;;19.76;88.96;99780.09;5042307;28;20045;-71
2023/08/01 06:16:40;;;;;;;3.63;3.35;;;19.50;99.90;;;19.75;88.59;99774.84;5045422;28;20076;-69
2023/08/01 06:19:09;;;;;;;3.25;3.15;;;19.60;99.90;;;19.87;88.08;99784.84;5034009;28;20041;-70
2023/08/01 06:21:37;;;;;;;3.42;3.33;;;19.60;99.90;;;19.87;88.56;99784.84;5040411;28;20443;-69
2023/08/01 06:24:07;;;;;;;3.10;3.00;;;19.60;99.90;;;19.76;89.45;99790.84;5033990;28;20174;-70
2023/08/01 06:26:36;;;;;;;3.05;2.95;;;19.50;99.90;;;19.83;90.53;99793.16;5033795;28;20042;-70
2023/08/01 06:29:04;;;;;;;3.30;3.20;;;19.50;99.90;;;19.75;90.54;99775.72;5041586;28;20435;-70
2023/08/01 06:31:33;;;;;;;2.85;2.75;;;19.50;99.90;;;19.87;89.87;99787.53;5043846;28;20041;-70
2023/08/01 06:34:02;;;;;;;4.05;3.85;;;19.60;99.90;;;19.86;89.63;99795.69;5042190;28;20495;-70
2023/08/01 06:36:32;;;;;;;3.13;3.03;;;19.60;99.90;;;19.78;89.77;99798.81;5044034;28;20080;-68
2023/08/01 06:39:00;;;;;;;15.50;3.83;;;19.60;99.90;;;19.51;89.87;99784.34;5033931;28;20045;-69
2023/08/01 06:41:29;;;;;;;3.20;3.10;;;19.30;99.90;;;19.42;90.27;99800.94;5033116;28;20372;-70
2023/08/01 06:43:57;;;;;;;3.47;3.38;;;19.20;99.90;;;19.44;89.95;99804.41;5033393;28;20042;-69
2023/08/01 06:46:25;;;;;;;4.70;4.43;;;19.20;99.90;;;19.63;90.68;99805.06;5034453;28;20077;-70
2023/08/01 06:48:53;;;;;;;3.58;3.47;;;19.30;99.90;;;19.87;90.88;99810.81;5043674;28;20036;-70
2023/08/01 06:51:23;;;;;;;3.63;3.35;;;19.60;99.90;;;19.80;90.72;99805.81;5042724;28;20046;-69
2023/08/01 06:53:52;;;;;;;3.63;3.53;;;19.60;99.90;;;19.98;89.49;99802.97;5049021;28;20060;-69
2023/08/01 06:56:20;;;;;;;3.53;3.42;;;19.70;99.90;;;20.01;87.73;99803.69;5043449;28;20136;-71
2023/08/01 06:58:49;;;;;;;3.88;3.58;;;19.80;99.90;;;20.06;87.37;99814.13;5041831;28;20045;-71
2023/08/01 07:01:17;;;;;;;3.30;3.20;;;19.80;99.90;;;19.90;86.02;99819.53;5044215;28;20123;-69
2023/08/01 07:03:46;;;;;;;5.30;5.00;;;19.70;99.90;;;20.09;85.77;99828.22;5040768;28;20041;-70
2023/08/01 07:06:14;;;;;;;3.75;3.60;;;19.80;99.90;;;20.18;85.32;99830.41;5041167;28;20053;-70
2023/08/01 07:08:44;;;;;;;3.92;3.72;;;20.00;99.90;;;19.94;83.53;99829.16;5044143;28;20071;-71
2023/08/01 07:11:12;;;;;;;4.70;4.33;;;19.80;99.90;;;19.63;84.10;99827.41;5057140;28;20061;-71
2023/08/01 07:13:41;;;;;;;3.78;3.58;;;19.50;99.90;;;19.81;85.23;99825.47;5042828;28;20107;-71
2023/08/01 07:16:09;;;;;;;4.80;4.40;;;19.50;99.90;;;19.79;84.11;99819.31;5042672;28;20103;-70
2023/08/01 07:18:37;;;;;;;3.58;3.47;;;19.60;99.90;;;19.80;84.31;99829.13;5042152;28;20494;-71
2023/08/01 07:21:06;;;;;;;5.38;4.50;;;19.60;99.90;;;19.89;84.00;99827.69;5043236;28;20127;-70
2023/08/01 07:23:36;;;;;;;8.05;3.67;;;19.60;99.90;;;20.11;85.15;99839.75;5041863;28;20057;-70
2023/08/01 07:26:05;;;;;;;5.05;4.75;;;19.80;99.90;;;20.01;83.22;99829.66;5044118;28;20055;-70
2023/08/01 07:28:34;;;;;;;4.43;4.07;;;19.80;99.90;;;20.01;82.97;99843.97;5032408;28;20470;-69
2023/08/01 07:31:05;;;;;;;3.60;3.47;;;19.80;99.90;;;19.34;82.90;99731.66;5032624;28;20471;-70
2023/08/01 07:33:35;;;;;;;3.55;3.40;;;19.80;99.90;;;19.98;83.37;99838.75;5032414;28;20095;-71
2023/08/01 07:36:04;;;;;;;3.78;3.55;;;19.80;99.90;;;20.02;82.47;99848.34;5034065;28;20435;-70
2023/08/01 07:38:32;;;;;;;3.50;3.40;;;19.90;99.90;;;20.03;82.66;99847.41;5041864;28;20044;-70
2023/08/01 07:41:07;;;;;;;5.63;4.85;;;19.80;99.90;;;19.53;83.12;99737.69;5043558;28;20118;-70
2023/08/01 07:43:35;;;;;;;3.60;3.50;;;19.90;99.90;;;20.43;82.42;99844.09;5040646;28;20053;-71
2023/08/01 07:46:03;;;;;;;2.92;2.83;;;20.20;99.90;;;20.58;81.97;99851.19;5032228;28;20444;-70
2023/08/01 07:48:32;;;;;;;2.95;2.85;;;20.30;99.90;;;20.79;81.48;99848.16;5039447;28;20049;-70
2023/08/01 07:51:00;;;;;;;3.97;3.45;;;20.60;99.90;;;20.75;80.40;99847.47;5032765;28;20045;-70
2023/08/01 07:53:29;;;;;;;3.53;3.35;;;20.50;99.90;;;20.90;80.51;99846.53;5032680;28;20052;-71
2023/08/01 07:55:57;;;;;;;3.72;3.53;;;20.70;99.90;;;20.84;80.69;99863.03;5040046;28;20127;-70
2023/08/01 07:58:27;;;;;;;3.03;2.92;;;20.60;99.90;;;21.12;79.31;99846.03;5042827;28;20053;-71
2023/08/01 08:00:55;;;;;;;3.93;3.63;;;20.90;99.90;;;21.25;78.48;99847.00;5041411;28;20052;-71
2023/08/01 08:03:24;;;;;;;2.92;2.83;;;21.00;99.90;;;21.34;76.88;99859.84;5055494;28;20053;-70
2023/08/01 08:05:52;;;;;;;3.63;3.28;;;21.10;99.90;;;21.45;76.66;99860.88;5044013;28;20088;-69
2023/08/01 08:08:21;;;;;;;2.72;2.63;;;21.20;99.90;;;21.46;77.27;99868.00;5039965;28;20132;-71
2023/08/01 08:10:49;;;;;;;2.60;2.50;;;21.30;99.90;;;21.48;76.73;99873.28;5040167;28;20054;-70
2023/08/01 08:13:17;;;;;;;4.18;3.83;;;21.30;99.90;;;20.90;76.72;99857.28;5043628;28;20102;-71
2023/08/01 08:15:47;;;;;;;2.50;2.40;;;20.90;99.90;;;20.58;77.82;99866.47;5041202;28;20060;-71
2023/08/01 08:18:15;;;;;;;3.30;3.20;;;20.40;99.90;;;20.70;78.62;99868.41;5042185;28;20044;-70
2023/08/01 08:20:47;;;;;;;4.45;2.92;;;20.50;99.90;;;20.53;79.59;99882.88;5042223;28;20441;-71
2023/08/01 08:23:15;;;;;;;3.97;3.78;;;20.30;99.90;;;20.02;80.85;99856.41;5040891;28;20049;-71
2023/08/01 08:25:46;;;;;;;3.13;3.03;;;19.90;99.90;;;19.88;80.34;99872.44;5043018;28;20117;-69
2023/08/01 08:28:15;;;;;;;4.60;4.30;;;19.70;99.90;;;19.66;81.25;99870.19;5039761;28;20103;-69
2023/08/01 08:30:45;;;;;;;4.25;3.95;;;19.50;99.90;;;19.67;81.56;99871.00;5031996;28;20052;-69
2023/08/01 08:33:21;;;;;;;9.18;3.22;;;19.50;99.90;;;19.78;83.06;99882.03;5031645;28;20042;-68
2023/08/01 08:35:49;;;;;;;7.72;3.92;;;19.40;99.90;;;19.84;83.57;99881.63;5031649;28;20076;-69
2023/08/01 08:38:19;;;;;;;8.82;4.38;;;19.50;99.90;;;19.86;83.82;99876.22;5034352;28;20097;-70
2023/08/01 08:41:00;;;;;;;3.17;3.08;;;19.60;99.90;;;20.03;82.16;99871.59;5040853;28;20056;-70
2023/08/01 08:43:28;;;;;;;3.08;2.97;;;19.70;99.90;;;20.19;81.39;99880.47;5041208;28;20042;-70
2023/08/01 08:46:01;;;;;;;7.68;3.72;;;19.90;99.90;;;20.33;81.34;99880.53;5041753;28;20029;-70
2023/08/01 08:48:31;;;;;;;5.20;4.70;;;20.10;99.90;;;20.30;79.19;99866.41;5042262;28;20395;-71
2023/08/01 08:51:03;;;;;;;5.00;4.38;;;20.20;99.90;;;20.30;79.77;99877.16;5040212;28;20038;-71
2023/08/01 08:53:33;;;;;;;4.07;3.78;;;20.10;99.90;;;20.17;79.12;99879.66;5031467;28;20060;-70
2023/08/01 08:56:03;;;;;;;6.22;4.90;;;20.00;99.90;;;20.28;80.39;99890.69;5040229;28;20057;-71
2023/08/01 08:58:31;;;;;;;4.05;3.75;;;20.00;99.90;;;20.31;79.04;99879.75;5042924;28;20145;-69
2023/08/01 09:01:02;;;;;;;3.10;3.00;;;20.10;99.90;;;20.38;78.93;99897.22;5044970;28;20037;-71
2023/08/01 09:03:31;;;;;;;;;;;20.10;99.90;;;20.13;78.80;99883.47;5045170;28;20045;-70
2023/08/01 09:06:06;;;;;;;5.15;4.75;;;20.00;99.90;;;20.19;78.19;99882.31;5045574;28;19924;-70
2023/08/01 09:08:37;;;;;;;7.97;3.83;;;20.00;99.90;;;19.82;78.96;99878.22;5046900;28;20041;-70
2023/08/01 09:11:06;;;;;;;3.67;3.40;;;19.80;99.90;;;20.13;80.94;99890.69;5044054;28;20049;-71
2023/08/01 09:13:35;;;;;;;3.15;3.05;;;19.80;99.90;;;20.39;79.83;99898.97;5045765;28;20082;-70
2023/08/01 09:16:05;;;;;;;4.30;4.00;;;20.10;99.90;;;20.54;79.60;99894.47;5044642;28;20041;-70
2023/08/01 09:18:35;;;;;;;3.28;3.17;;;20.30;99.90;;;20.50;77.73;99888.41;5044567;28;20045;-70
2023/08/01 09:21:04;;;;;;;3.47;3.27;;;20.40;99.90;;;20.58;77.64;99898.69;5057756;28;20482;-69
2023/08/01 09:23:32;;;;;;;3.00;2.90;;;20.40;99.90;;;20.64;77.36;99898.34;5045769;28;20474;-71
2023/08/01 09:26:00;;;;;;;3.17;3.08;;;20.40;99.90;;;20.80;76.74;99899.13;5043406;28;20099;-72
2023/08/01 09:28:29;;;;;;;2.95;2.85;;;20.60;99.90;;;21.11;77.03;99909.75;5034962;28;20143;-71
2023/08/01 09:30:57;;;;;;;3.05;2.95;;;20.80;99.90;;;21.40;76.07;99905.19;5034940;28;20042;-71
2023/08/01 09:33:26;;;;;;;3.63;3.42;;;21.20;99.90;;;21.43;74.17;99918.44;5034525;28;20041;-70
2023/08/01 09:35:56;;;;;;;3.42;3.30;;;21.30;99.90;;;21.56;73.87;99911.34;5075962;28;20473;-70
2023/08/01 09:38:26;;;;;;;3.47;3.27;;;21.40;99.90;;;21.60;72.54;99912.88;5044427;28;20194;-69
2023/08/01 09:40:55;;;;;;;3.78;3.50;;;21.50;99.90;;;21.32;70.60;99918.28;5044814;28;20053;-70
2023/08/01 09:43:23;;;;;;;3.22;3.00;;;21.20;99.90;;;21.68;72.56;99923.13;5058953;28;20549;-71
2023/08/01 09:45:53;;;;;;;2.75;2.65;;;21.40;99.90;;;22.05;71.95;99926.00;5057526;28;20053;-70
2023/08/01 09:48:26;;;;;;;3.38;3.28;;;21.70;99.90;;;22.40;70.94;99932.59;5046298;28;20049;-70
2023/08/01 09:51:09;;;;;;;3.33;3.22;;;22.10;99.90;;;22.29;69.53;99924.38;5043093;28;20128;-71
2023/08/01 09:53:49;;;;;;;3.63;3.42;;;22.10;99.90;;;21.66;70.47;99925.06;5043062;28;20056;-70
2023/08/01 09:56:21;;;;;;;2.55;2.45;;;21.60;99.90;;;21.71;71.86;99937.25;5042889;28;20557;-70
2023/08/01 09:58:51;;;;;;;3.80;3.58;;;21.50;99.90;;;21.60;72.42;99931.72;5043871;28;20040;-70
2023/08/01 10:01:24;;;;;;;3.23;3.03;;;21.40;99.90;;;21.56;73.00;99924.78;5044894;28;20459;-70
2023/08/01 10:03:54;;;;;;;2.70;2.60;;;21.40;99.90;;;21.44;72.54;99933.66;5042495;28;20042;-69
2023/08/01 10:06:29;;;;;;;3.47;3.37;;;21.30;99.90;;;21.65;73.61;99940.34;5033968;28;20140;-71
2023/08/01 10:08:59;;;;;;;3.70;3.50;;;21.40;99.90;;;21.45;72.28;99930.84;5033616;28;20046;-69
2023/08/01 10:11:31;;;;;;;3.63;3.33;;;21.30;99.90;;;21.42;72.01;99930.19;5033379;28;20083;-69
2023/08/01 10:13:59;;;;;;;3.25;3.15;;;21.20;99.90;;;21.90;74.43;99936.94;5036377;28;20406;-70
2023/08/01 10:16:28;;;;;;;3.10;2.92;;;21.60;99.90;;;22.06;71.62;99938.53;5049197;28;20045;-69
2023/08/01 10:18:58;;;;;;;7.35;3.50;;;21.80;99.90;;;22.25;72.11;99943.56;5045291;28;20051;-70
2023/08/01 10:21:28;;;;;;;2.70;2.60;;;22.00;99.90;;;22.22;71.61;99944.59;5033836;28;20037;-69
2023/08/01 10:23:57;;;;;;;;;;;22.10;99.90;;;21.86;70.35;99941.66;5033817;28;20124;-71
2023/08/01 10:26:25;;;;;;;2.53;2.42;;;21.80;99.90;;;21.92;70.25;99937.69;5033669;28;19929;-71
2023/08/01 10:28:54;;;;;;;3.00;2.90;;;21.80;99.90;;;22.22;71.16;99935.69;5043167;28;20557;-71